sensor_id;sensor_type;location;lat;lon;timestamp;P1;durP1;ratioP1;P2;durP2;ratioP2
38248;SDS011;24045;51.138;17.126;2023-05-07T00:28:23;8.60;;;4.70;;
38248;SDS011;24045;51.138;17.126;2023-05-07T00:43:25;7.90;;;4.80;;
38248;SDS011;24045;51.138;17.126;2023-05-07T00:58:29;10.70;;;5.50;;
38248;SDS011;24045;51.138;17.126;2023-05-07T01:13:33;9.00;;;5.30;;
38248;SDS011;24045;51.138;17.126;2023-05-07T01:28:37;8.10;;;4.80;;
38248;SDS011;24045;51.138;17.126;2023-05-07T01:58:44;9.90;;;5.80;;
38248;SDS011;24045;51.138;17.126;2023-05-07T02:13:48;9.30;;;5.60;;
38248;SDS011;24045;51.138;17.126;2023-05-07T02:28:51;10.50;;;5.90;;
38248;SDS011;24045;51.138;17.126;2023-05-07T02:43:54;8.30;;;5.20;;
38248;SDS011;24045;51.138;17.126;2023-05-07T02:58:57;9.80;;;6.00;;
38248;SDS011;24045;51.138;17.126;2023-05-07T03:14:00;9.00;;;5.10;;
38248;SDS011;24045;51.138;17.126;2023-05-07T03:29:03;9.20;;;4.90;;
38248;SDS011;24045;51.138;17.126;2023-05-07T03:44:06;9.50;;;4.40;;
38248;SDS011;24045;51.138;17.126;2023-05-07T03:59:08;6.40;;;3.50;;
38248;SDS011;24045;51.138;17.126;2023-05-07T04:14:11;7.50;;;4.30;;
38248;SDS011;24045;51.138;17.126;2023-05-07T04:29:14;7.80;;;4.90;;
38248;SDS011;24045;51.138;17.126;2023-05-07T04:44:16;9.30;;;5.90;;
38248;SDS011;24045;51.138;17.126;2023-05-07T04:59:19;8.00;;;4.50;;
38248;SDS011;24045;51.138;17.126;2023-05-07T05:14:22;8.30;;;5.30;;
38248;SDS011;24045;51.138;17.126;2023-05-07T05:29:24;9.20;;;4.80;;
38248;SDS011;24045;51.138;17.126;2023-05-07T05:44:27;9.40;;;6.00;;
38248;SDS011;24045;51.138;17.126;2023-05-07T05:59:30;8.40;;;5.30;;
38248;SDS011;24045;51.138;17.126;2023-05-07T06:14:33;7.80;;;5.00;;
38248;SDS011;24045;51.138;17.126;2023-05-07T06:59:41;5.60;;;2.80;;
38248;SDS011;24045;51.138;17.126;2023-05-07T07:14:44;6.20;;;3.10;;
38248;SDS011;24045;51.138;17.126;2023-05-07T07:29:47;8.70;;;3.90;;
38248;SDS011;24045;51.138;17.126;2023-05-07T07:44:50;10.60;;;5.40;;
38248;SDS011;24045;51.138;17.126;2023-05-07T08:45:01;10.30;;;6.60;;
38248;SDS011;24045;51.138;17.126;2023-05-07T09:00:08;10.90;;;6.40;;
38248;SDS011;24045;51.138;17.126;2023-05-07T09:15:12;10.60;;;5.90;;
38248;SDS011;24045;51.138;17.126;2023-05-07T09:30:15;13.50;;;9.90;;
38248;SDS011;24045;51.138;17.126;2023-05-07T10:00:27;9.30;;;6.20;;
38248;SDS011;24045;51.138;17.126;2023-05-07T10:15:30;9.20;;;5.30;;
38248;SDS011;24045;51.138;17.126;2023-05-07T10:30:38;9.50;;;5.60;;
38248;SDS011;24045;51.138;17.126;2023-05-07T11:01:14;7.70;;;4.70;;
38248;SDS011;24045;51.138;17.126;2023-05-07T11:16:20;8.70;;;5.40;;
38248;SDS011;24045;51.138;17.126;2023-05-07T11:31:27;7.80;;;3.90;;
38248;SDS011;24045;51.138;17.126;2023-05-07T11:46:31;8.90;;;5.30;;
38248;SDS011;24045;51.138;17.126;2023-05-07T12:01:35;8.70;;;4.80;;
38248;SDS011;24045;51.138;17.126;2023-05-07T12:16:39;7.40;;;4.70;;
38248;SDS011;24045;51.138;17.126;2023-05-07T12:31:43;8.50;;;5.00;;
38248;SDS011;24045;51.138;17.126;2023-05-07T12:46:46;10.00;;;5.70;;
38248;SDS011;24045;51.138;17.126;2023-05-07T13:01:49;10.70;;;6.80;;
38248;SDS011;24045;51.138;17.126;2023-05-07T13:16:53;9.90;;;6.80;;
38248;SDS011;24045;51.138;17.126;2023-05-07T13:46:59;9.10;;;5.40;;
38248;SDS011;24045;51.138;17.126;2023-05-07T14:02:02;8.60;;;5.40;;
38248;SDS011;24045;51.138;17.126;2023-05-07T14:17:05;10.30;;;6.30;;
38248;SDS011;24045;51.138;17.126;2023-05-07T14:32:08;10.60;;;6.30;;
38248;SDS011;24045;51.138;17.126;2023-05-07T15:02:14;9.10;;;5.30;;
38248;SDS011;24045;51.138;17.126;2023-05-07T15:17:18;8.00;;;5.00;;
38248;SDS011;24045;51.138;17.126;2023-05-07T16:02:26;11.20;;;6.60;;
38248;SDS011;24045;51.138;17.126;2023-05-07T16:17:29;10.70;;;7.30;;
38248;SDS011;24045;51.138;17.126;2023-05-07T17:02:38;9.00;;;6.10;;
38248;SDS011;24045;51.138;17.126;2023-05-07T17:17:41;11.10;;;6.40;;
38248;SDS011;24045;51.138;17.126;2023-05-07T17:47:46;13.60;;;8.00;;
38248;SDS011;24045;51.138;17.126;2023-05-07T18:02:52;15.00;;;9.10;;
38248;SDS011;24045;51.138;17.126;2023-05-07T18:17:55;10.40;;;7.30;;
38248;SDS011;24045;51.138;17.126;2023-05-07T18:48:01;11.20;;;7.50;;
38248;SDS011;24045;51.138;17.126;2023-05-07T19:03:04;11.70;;;8.00;;
38248;SDS011;24045;51.138;17.126;2023-05-07T19:18:08;11.50;;;7.60;;
38248;SDS011;24045;51.138;17.126;2023-05-07T19:48:14;11.20;;;7.00;;
38248;SDS011;24045;51.138;17.126;2023-05-07T20:03:17;10.80;;;7.60;;
38248;SDS011;24045;51.138;17.126;2023-05-07T20:18:20;12.40;;;7.40;;
38248;SDS011;24045;51.138;17.126;2023-05-07T20:33:23;14.20;;;8.50;;
38248;SDS011;24045;51.138;17.126;2023-05-07T20:48:26;11.50;;;7.90;;
38248;SDS011;24045;51.138;17.126;2023-05-07T21:03:32;10.30;;;5.90;;
38248;SDS011;24045;51.138;17.126;2023-05-07T21:33:38;8.20;;;4.90;;
38248;SDS011;24045;51.138;17.126;2023-05-07T21:48:41;7.70;;;4.60;;
38248;SDS011;24045;51.138;17.126;2023-05-07T22:18:47;9.70;;;5.50;;
38248;SDS011;24045;51.138;17.126;2023-05-07T22:33:51;10.20;;;6.80;;
38248;SDS011;24045;51.138;17.126;2023-05-07T22:48:54;13.80;;;9.80;;
38248;SDS011;24045;51.138;17.126;2023-05-07T23:49:04;14.70;;;10.10;;
